createdAt,value
2022-12-08T06:03:26.936Z,1.60
2022-12-08T06:05:55.991Z,1.92
2022-12-08T06:08:22.940Z,1.80
2022-12-08T06:10:50.059Z,1.85
2022-12-08T06:13:16.906Z,1.88
2022-12-08T06:15:43.972Z,1.63
2022-12-08T06:18:11.883Z,1.15
2022-12-08T06:20:38.735Z,1.98
2022-12-08T06:23:05.579Z,1.58
2022-12-08T06:25:32.512Z,1.80
2022-12-08T06:27:59.425Z,1.50
2022-12-08T06:30:27.257Z,1.27
2022-12-08T06:32:54.272Z,1.52
2022-12-08T06:35:21.261Z,1.33
2022-12-08T06:37:48.334Z,1.45
2022-12-08T06:40:15.354Z,1.30
2022-12-08T06:42:44.396Z,1.25
2022-12-08T06:45:13.386Z,1.70
2022-12-08T06:47:40.278Z,1.10
2022-12-08T06:50:10.512Z,1.40
2022-12-08T06:52:45.645Z,1.40
2022-12-08T06:55:35.526Z,1.20
2022-12-08T06:58:03.578Z,1.23
2022-12-08T07:00:30.513Z,1.73
2022-12-08T07:02:57.390Z,1.42
2022-12-08T07:05:24.408Z,1.20
2022-12-08T07:07:51.563Z,1.00
2022-12-08T07:10:18.430Z,1.30
2022-12-08T07:12:45.612Z,1.45
2022-12-08T07:15:12.749Z,1.73
2022-12-08T07:17:39.598Z,1.20
2022-12-08T07:20:07.717Z,1.70
2022-12-08T07:22:35.036Z,1.63
2022-12-08T07:25:01.998Z,1.10
2022-12-08T07:27:29.018Z,1.92
2022-12-08T07:29:55.966Z,1.10
2022-12-08T07:32:22.976Z,1.48
2022-12-08T07:34:49.907Z,1.90
2022-12-08T07:37:16.933Z,1.88
2022-12-08T07:39:44.207Z,1.98
2022-12-08T07:42:11.782Z,1.63
2022-12-08T07:44:39.885Z,1.88
2022-12-08T07:47:06.967Z,2.25
2022-12-08T07:49:33.728Z,1.98
2022-12-08T07:52:00.908Z,1.95
2022-12-08T07:54:28.132Z,1.43
2022-12-08T07:56:58.073Z,1.58
2022-12-08T07:59:25.256Z,2.10
2022-12-08T08:02:06.571Z,1.92
2022-12-08T08:04:39.207Z,2.22
2022-12-08T08:07:06.166Z,2.20
2022-12-08T08:09:36.148Z,1.70
2022-12-08T08:12:29.487Z,2.00
2022-12-08T08:14:50.050Z,2.08
2022-12-08T08:17:17.152Z,2.28
2022-12-08T08:19:44.209Z,1.90
2022-12-08T08:22:11.198Z,1.90
2022-12-08T08:24:44.483Z,1.60
2022-12-08T08:27:13.965Z,1.90
2022-12-08T08:29:40.930Z,2.22
2022-12-08T08:32:08.909Z,1.90
2022-12-08T08:34:36.079Z,2.72
2022-12-08T08:37:03.474Z,2.33
2022-12-08T08:39:31.912Z,1.98
2022-12-08T08:41:59.978Z,2.22
2022-12-08T08:44:28.045Z,2.27
2022-12-08T08:46:55.035Z,1.95
2022-12-08T08:49:22.149Z,1.98
2022-12-08T08:51:49.349Z,1.95
2022-12-08T08:54:16.309Z,2.08
2022-12-08T08:56:43.275Z,2.17
2022-12-08T08:59:10.532Z,2.13
2022-12-08T09:01:37.670Z,2.75
2022-12-08T09:04:04.899Z,2.47
2022-12-08T09:09:27.913Z,2.07
2022-12-08T09:11:55.643Z,2.13
2022-12-08T09:14:23.633Z,2.35
2022-12-08T09:16:54.129Z,1.60
2022-12-08T09:19:21.051Z,1.92
2022-12-08T09:21:47.996Z,1.70
2022-12-08T09:24:17.771Z,2.13
2022-12-08T09:26:45.497Z,2.05
2022-12-08T09:29:13.688Z,1.88
2022-12-08T09:31:41.602Z,2.25
2022-12-08T09:34:10.643Z,1.70
2022-12-08T09:36:37.609Z,1.80
2022-12-08T09:39:05.706Z,1.90
2022-12-08T09:41:39.197Z,1.75
2022-12-08T09:44:07.508Z,2.03
2022-12-08T09:46:35.653Z,1.87
2022-12-08T09:49:04.798Z,1.40
2022-12-08T09:51:38.362Z,1.88
2022-12-08T09:54:18.457Z,1.98
2022-12-08T09:56:45.817Z,1.60
2022-12-08T09:59:24.038Z,1.70
2022-12-08T10:01:51.335Z,1.63
2022-12-08T10:04:24.652Z,2.13
2022-12-08T10:07:17.492Z,1.73
2022-12-08T10:09:58.933Z,1.80
2022-12-08T10:12:53.416Z,1.90
2022-12-08T10:15:32.489Z,2.00
2022-12-08T10:18:03.062Z,2.15
2022-12-08T10:20:38.438Z,1.70
2022-12-08T10:23:26.836Z,1.60
2022-12-08T10:26:02.527Z,2.00
2022-12-08T10:28:31.495Z,1.80
2022-12-08T10:30:58.994Z,2.38
2022-12-08T10:33:26.231Z,1.50
2022-12-08T10:35:56.549Z,2.05
2022-12-08T10:38:30.625Z,1.87
2022-12-08T10:41:14.120Z,1.70
2022-12-08T10:43:57.655Z,3.45
2022-12-08T10:46:26.684Z,2.88
2022-12-08T10:49:11.868Z,2.40
2022-12-08T10:51:41.451Z,2.13
2022-12-08T10:54:33.809Z,2.03
2022-12-08T10:57:00.934Z,2.22
2022-12-08T10:59:27.878Z,2.22
2022-12-08T11:01:56.649Z,3.15
2022-12-08T11:04:36.729Z,5.97
2022-12-08T11:07:06.182Z,5.32
2022-12-08T11:09:49.492Z,8.88
2022-12-08T11:12:18.325Z,3.97
2022-12-08T11:14:45.851Z,4.53
2022-12-08T11:17:18.231Z,27.93
2022-12-08T11:19:55.821Z,18.52
2022-12-08T11:22:24.701Z,7.78
2022-12-08T11:25:19.058Z,6.38
2022-12-08T11:27:48.725Z,3.42
2022-12-08T11:30:24.973Z,3.47
2022-12-08T11:32:59.667Z,3.05
2022-12-08T11:35:41.245Z,3.50
2022-12-08T11:38:22.373Z,3.67
2022-12-08T11:40:55.356Z,3.70
2022-12-08T11:43:34.753Z,3.07
2022-12-08T11:46:04.721Z,3.78
2022-12-08T11:49:06.355Z,4.25
2022-12-08T11:51:38.148Z,2.92
2022-12-08T11:54:11.556Z,3.25
2022-12-08T11:56:44.402Z,3.67
2022-12-08T11:59:17.783Z,3.10
2022-12-08T12:01:45.068Z,4.50
2022-12-08T12:04:37.057Z,4.20
2022-12-08T12:07:26.582Z,5.35
2022-12-08T12:10:09.318Z,3.97
2022-12-08T12:12:54.552Z,3.95
2022-12-08T12:15:29.704Z,4.10
2022-12-08T12:18:02.037Z,3.58
2022-12-08T12:20:34.657Z,4.10
2022-12-08T12:23:18.616Z,3.90
2022-12-08T12:26:01.183Z,3.40
2022-12-08T12:28:36.444Z,3.33
2022-12-08T12:31:10.130Z,3.67
2022-12-08T12:33:37.599Z,3.80
2022-12-08T12:36:10.189Z,3.30
2022-12-08T12:39:03.148Z,3.63
2022-12-08T12:41:48.919Z,3.33
2022-12-08T12:44:15.764Z,3.53
2022-12-08T12:46:46.154Z,3.65
2022-12-08T12:49:39.233Z,4.43
2022-12-08T12:52:15.036Z,13.68
2022-12-08T12:54:51.761Z,7.85
2022-12-08T12:57:23.869Z,5.50
2022-12-08T12:59:55.179Z,3.50
2022-12-08T13:02:37.727Z,4.70
2022-12-08T13:05:28.736Z,4.00
2022-12-08T13:08:12.068Z,5.10
2022-12-08T13:10:46.684Z,3.08
2022-12-08T13:13:16.530Z,3.65
2022-12-08T13:15:46.513Z,3.77
2022-12-08T13:18:34.874Z,3.55
2022-12-08T13:21:14.964Z,3.50
2022-12-08T13:23:44.133Z,3.90
2022-12-08T13:26:24.630Z,4.05
2022-12-08T13:29:11.391Z,3.10
2022-12-08T13:31:50.466Z,3.72
2022-12-08T13:34:36.496Z,4.25
2022-12-08T13:37:17.472Z,4.57
2022-12-08T13:39:53.961Z,5.18
2022-12-08T13:42:56.483Z,4.93
2022-12-08T13:49:18.501Z,4.82
2022-12-08T13:57:32.523Z,5.30
2022-12-08T14:00:14.594Z,5.72
2022-12-08T14:02:53.290Z,5.60
2022-12-08T14:05:40.842Z,6.35
2022-12-08T14:08:58.970Z,6.97
2022-12-08T14:11:34.817Z,7.27
2022-12-08T14:14:14.468Z,7.15
2022-12-08T14:16:53.825Z,6.30
2022-12-08T14:19:26.635Z,6.10
2022-12-08T14:22:10.111Z,5.57
2022-12-08T14:24:37.111Z,4.50
2022-12-08T14:27:07.654Z,5.00
2022-12-08T14:29:52.650Z,5.30
2022-12-08T14:32:30.436Z,5.38
2022-12-08T14:35:10.046Z,5.97
2022-12-08T14:37:42.747Z,4.87
2022-12-08T14:40:36.016Z,3.95
2022-12-08T14:43:09.098Z,3.45
2022-12-08T14:45:45.470Z,4.20
2022-12-08T14:48:31.265Z,3.55
2022-12-08T14:51:04.547Z,4.63
2022-12-08T14:53:53.725Z,5.57
2022-12-08T14:56:24.960Z,5.00
2022-12-08T14:59:25.382Z,3.78
2022-12-08T15:02:09.738Z,4.50
2022-12-08T15:04:39.330Z,5.10
2022-12-08T15:07:28.984Z,3.58
2022-12-08T15:10:17.219Z,4.28
2022-12-08T15:13:03.256Z,3.63
2022-12-08T15:15:31.940Z,4.40
2022-12-08T15:18:21.661Z,3.67
2022-12-08T15:20:58.838Z,3.85
2022-12-08T15:23:27.668Z,4.35
2022-12-08T15:25:56.402Z,3.90
2022-12-08T15:28:30.321Z,3.70
2022-12-08T15:30:58.461Z,4.67
2022-12-08T15:33:25.638Z,4.22
2022-12-08T15:35:53.690Z,5.95
2022-12-08T15:38:31.551Z,6.60
2022-12-08T15:41:01.502Z,4.47
2022-12-08T15:43:29.580Z,4.67
2022-12-08T15:46:00.485Z,2.85
2022-12-08T15:48:29.793Z,3.22
2022-12-08T15:50:57.752Z,3.10
2022-12-08T15:53:24.937Z,3.90
2022-12-08T15:58:56.138Z,3.50
2022-12-08T16:01:25.061Z,3.67
2022-12-08T16:09:43.499Z,3.47
2022-12-08T16:13:48.334Z,2.95
2022-12-08T16:15:55.156Z,4.28
2022-12-08T16:18:29.193Z,4.05
2022-12-08T16:23:44.974Z,3.67
2022-12-08T16:26:39.403Z,4.03
2022-12-08T16:29:05.552Z,5.82
2022-12-08T16:31:33.222Z,3.97
2022-12-08T16:34:01.370Z,5.05
2022-12-08T16:36:28.828Z,5.00
2022-12-08T16:39:03.002Z,4.45
2022-12-08T16:41:48.644Z,8.02
2022-12-08T16:44:15.695Z,6.65
2022-12-08T16:46:42.876Z,4.80
2022-12-08T16:49:12.847Z,5.23
2022-12-08T16:51:45.022Z,4.90
2022-12-08T16:54:12.167Z,4.75
2022-12-08T16:56:40.327Z,4.10
2022-12-08T16:59:07.377Z,5.18
2022-12-08T17:01:34.529Z,5.10
2022-12-08T17:06:53.122Z,15.02
2022-12-08T17:09:42.454Z,56.75
2022-12-08T17:12:12.419Z,28.95
2022-12-08T17:14:39.412Z,9.77
2022-12-08T17:17:06.766Z,26.13
2022-12-08T17:19:37.862Z,30.55
2022-12-08T17:22:05.414Z,30.65
2022-12-08T17:24:35.695Z,16.90
2022-12-08T17:27:06.895Z,10.70
2022-12-08T17:29:37.706Z,9.32
2022-12-08T17:32:07.595Z,8.32
2022-12-08T17:34:34.779Z,8.52
2022-12-08T17:37:04.106Z,8.63
2022-12-08T17:39:33.182Z,8.10
2022-12-08T17:42:03.415Z,8.60
2022-12-08T17:44:31.114Z,12.10
2022-12-08T17:46:58.281Z,16.35
2022-12-08T17:49:28.074Z,11.20
2022-12-08T17:51:57.577Z,8.50
2022-12-08T17:54:25.800Z,9.90
2022-12-08T17:56:55.866Z,8.88
2022-12-08T17:59:22.940Z,8.82
2022-12-08T18:01:52.513Z,8.85
2022-12-08T18:04:19.853Z,8.93
2022-12-08T18:06:47.017Z,9.27
2022-12-08T18:09:15.165Z,9.32
2022-12-08T18:11:43.281Z,9.60
2022-12-08T18:14:11.226Z,8.57
2022-12-08T18:16:41.275Z,8.97
2022-12-08T18:19:11.771Z,8.43
2022-12-08T18:21:39.843Z,8.95
2022-12-08T18:24:08.715Z,8.73
2022-12-08T18:26:35.982Z,9.60
2022-12-08T18:29:06.337Z,8.53
2022-12-08T18:31:33.586Z,8.80
2022-12-08T18:34:00.704Z,10.32
2022-12-08T18:36:35.522Z,10.85
2022-12-08T18:39:10.696Z,11.38
2022-12-08T18:41:38.563Z,11.80
2022-12-08T18:44:05.799Z,11.23
2022-12-08T18:46:32.996Z,12.32
2022-12-08T18:49:00.165Z,13.77
2022-12-08T18:51:27.440Z,14.10
2022-12-08T18:53:54.830Z,13.07
2022-12-08T18:56:26.401Z,13.25
2022-12-08T18:58:58.453Z,15.57
2022-12-08T19:01:28.820Z,14.00
2022-12-08T19:04:26.707Z,15.18
2022-12-08T19:06:45.087Z,15.57
2022-12-08T19:09:12.644Z,14.75
2022-12-08T19:11:39.515Z,16.70
2022-12-08T19:14:07.518Z,16.70
2022-12-08T19:16:34.941Z,15.77
2022-12-08T19:19:02.603Z,15.47
2022-12-08T19:21:29.833Z,17.90
2022-12-08T19:23:58.628Z,21.02
2022-12-08T19:26:27.197Z,21.30
2022-12-08T19:28:58.296Z,20.00
2022-12-08T19:31:25.652Z,18.70
2022-12-08T19:33:52.910Z,17.98
2022-12-08T19:36:22.939Z,20.52
2022-12-08T19:39:09.179Z,20.30
2022-12-08T19:41:55.683Z,20.17
2022-12-08T19:44:28.943Z,19.50
2022-12-08T19:46:56.088Z,20.58
2022-12-08T19:49:23.115Z,20.85
2022-12-08T19:51:51.445Z,19.90
2022-12-08T19:54:18.922Z,21.25
2022-12-08T19:56:51.334Z,17.63
2022-12-08T19:59:19.365Z,21.70
2022-12-08T20:01:51.702Z,20.77
2022-12-08T20:04:19.318Z,20.42
2022-12-08T20:06:46.789Z,22.23
2022-12-08T20:09:14.519Z,21.27
2022-12-08T20:11:41.968Z,22.85
2022-12-08T20:14:09.714Z,21.52
2022-12-08T20:16:37.190Z,20.63
2022-12-08T20:19:09.012Z,22.20
2022-12-08T20:21:36.795Z,20.53
2022-12-08T20:24:07.370Z,21.15
2022-12-08T20:26:34.664Z,20.17
2022-12-08T20:29:01.693Z,18.55
2022-12-08T20:31:33.272Z,20.77
2022-12-08T20:34:01.642Z,20.70
2022-12-08T20:36:29.301Z,19.20
2022-12-08T20:38:56.881Z,19.55
2022-12-08T20:41:24.942Z,20.00
2022-12-08T20:43:52.684Z,19.08
2022-12-08T20:46:21.308Z,20.33
2022-12-08T20:48:48.903Z,19.63
2022-12-08T20:51:19.946Z,18.48
2022-12-08T20:53:47.877Z,20.60
2022-12-08T20:56:17.507Z,21.00
2022-12-08T20:58:44.908Z,21.87
2022-12-08T21:01:14.417Z,21.38
2022-12-08T21:03:42.504Z,24.52
2022-12-08T21:06:10.310Z,46.78
2022-12-08T21:08:59.517Z,32.22
2022-12-08T21:11:26.582Z,27.63
2022-12-08T21:13:55.226Z,28.75
2022-12-08T21:16:22.580Z,26.98
2022-12-08T21:18:49.752Z,30.42
2022-12-08T21:21:17.883Z,26.95
2022-12-08T21:23:45.923Z,25.87
2022-12-08T21:26:17.261Z,26.38
2022-12-08T21:28:45.082Z,27.25
2022-12-08T21:31:15.080Z,36.05
2022-12-08T21:33:42.785Z,25.65
2022-12-08T21:36:15.922Z,23.80
2022-12-08T21:38:43.630Z,24.10
2022-12-08T21:41:37.378Z,25.15
2022-12-08T21:44:09.024Z,25.90
2022-12-08T21:46:36.132Z,24.80
2022-12-08T21:49:04.436Z,25.10
2022-12-08T21:51:33.438Z,23.58
2022-12-08T21:54:00.801Z,27.63
2022-12-08T21:56:27.941Z,23.60
2022-12-08T21:58:55.020Z,24.95
2022-12-08T22:01:22.232Z,24.10
2022-12-08T22:03:49.687Z,28.90
2022-12-08T22:06:17.036Z,27.75
2022-12-08T22:08:44.057Z,28.60
2022-12-08T22:11:11.845Z,28.00
2022-12-08T22:13:40.995Z,25.73
2022-12-08T22:16:18.341Z,29.00
2022-12-08T22:18:46.083Z,26.40
2022-12-08T22:21:15.940Z,24.70
2022-12-08T22:23:43.672Z,27.15
2022-12-08T22:26:11.013Z,33.27
2022-12-08T22:28:40.295Z,29.40
2022-12-08T22:31:22.354Z,32.10
2022-12-08T22:33:51.098Z,31.25
2022-12-08T22:36:21.715Z,24.92
2022-12-08T22:38:49.686Z,26.57
2022-12-08T22:41:17.280Z,25.83
2022-12-08T22:43:44.451Z,25.77
2022-12-08T22:46:22.248Z,25.02
2022-12-08T22:48:50.143Z,27.20
2022-12-08T22:51:17.608Z,26.07
2022-12-08T22:53:46.812Z,25.67
2022-12-08T22:56:15.023Z,28.55
2022-12-08T22:58:44.494Z,28.15
2022-12-08T23:01:30.029Z,29.13
2022-12-08T23:03:58.327Z,26.03
2022-12-08T23:06:27.134Z,26.50
2022-12-08T23:08:54.773Z,29.17
2022-12-08T23:11:24.428Z,26.83
2022-12-08T23:13:52.216Z,30.17
2022-12-08T23:16:19.289Z,28.70
2022-12-08T23:18:46.950Z,29.77
2022-12-08T23:21:16.854Z,30.63
2022-12-08T23:23:44.475Z,28.67
2022-12-08T23:26:26.756Z,28.58
2022-12-08T23:28:56.388Z,28.00
2022-12-08T23:31:23.568Z,29.15
2022-12-08T23:33:51.126Z,29.95
2022-12-08T23:36:20.407Z,29.83
2022-12-08T23:38:47.611Z,30.30
2022-12-08T23:41:16.004Z,27.10
2022-12-08T23:43:48.868Z,26.15
2022-12-08T23:46:17.331Z,26.65
2022-12-08T23:48:44.719Z,25.52
2022-12-08T23:51:12.903Z,26.40
2022-12-08T23:53:40.236Z,25.13
2022-12-08T23:56:09.646Z,21.48
2022-12-08T23:58:37.555Z,23.23
